sensor_id;sensor_type;location;lat;lon;timestamp;pressure;altitude;pressure_sealevel;temperature;humidity
58239;BME280;44037;55.638;37.356;2023-07-22T00:02:31;98491.75;;;13.82;100.00
58239;BME280;44037;55.638;37.356;2023-07-22T00:04:59;98484.72;;;13.86;100.00
58239;BME280;44037;55.638;37.356;2023-07-22T00:07:26;98489.88;;;13.87;100.00
58239;BME280;44037;55.638;37.356;2023-07-22T00:09:53;98486.47;;;13.85;100.00
58239;BME280;44037;55.638;37.356;2023-07-22T00:12:20;98491.75;;;13.82;100.00
58239;BME280;44037;55.638;37.356;2023-07-22T00:14:51;98489.19;;;13.79;100.00
58239;BME280;44037;55.638;37.356;2023-07-22T00:17:20;98490.09;;;13.78;100.00
58239;BME280;44037;55.638;37.356;2023-07-22T00:19:48;98488.38;;;13.77;100.00
58239;BME280;44037;55.638;37.356;2023-07-22T00:22:15;98484.03;;;13.77;100.00
58239;BME280;44037;55.638;37.356;2023-07-22T00:24:42;98495.34;;;13.75;100.00
58239;BME280;44037;55.638;37.356;2023-07-22T00:27:09;98490.25;;;13.72;100.00
58239;BME280;44037;55.638;37.356;2023-07-22T00:29:36;98498.09;;;13.69;100.00
58239;BME280;44037;55.638;37.356;2023-07-22T00:32:05;98499.00;;;13.67;100.00
58239;BME280;44037;55.638;37.356;2023-07-22T00:34:35;98505.03;;;13.68;100.00
58239;BME280;44037;55.638;37.356;2023-07-22T00:37:03;98504.19;;;13.67;100.00
58239;BME280;44037;55.638;37.356;2023-07-22T00:39:30;98497.22;;;13.70;100.00
58239;BME280;44037;55.638;37.356;2023-07-22T00:41:57;98501.66;;;13.64;100.00
58239;BME280;44037;55.638;37.356;2023-07-22T00:44:25;98499.19;;;13.58;100.00
58239;BME280;44037;55.638;37.356;2023-07-22T00:46:53;98495.75;;;13.56;100.00
58239;BME280;44037;55.638;37.356;2023-07-22T00:49:21;98496.66;;;13.55;100.00
58239;BME280;44037;55.638;37.356;2023-07-22T00:51:51;98493.22;;;13.53;100.00
58239;BME280;44037;55.638;37.356;2023-07-22T00:54:18;98498.38;;;13.56;100.00
58239;BME280;44037;55.638;37.356;2023-07-22T00:56:46;98493.00;;;13.62;100.00
58239;BME280;44037;55.638;37.356;2023-07-22T00:59:15;98501.66;;;13.64;100.00
58239;BME280;44037;55.638;37.356;2023-07-22T01:01:43;98500.81;;;13.62;100.00
58239;BME280;44037;55.638;37.356;2023-07-22T01:04:10;98504.31;;;13.61;100.00
58239;BME280;44037;55.638;37.356;2023-07-22T01:06:37;98507.84;;;13.60;100.00
58239;BME280;44037;55.638;37.356;2023-07-22T01:09:05;98510.44;;;13.60;100.00
58239;BME280;44037;55.638;37.356;2023-07-22T01:11:34;98516.44;;;13.62;100.00
58239;BME280;44037;55.638;37.356;2023-07-22T01:14:01;98510.34;;;13.63;100.00
58239;BME280;44037;55.638;37.356;2023-07-22T01:16:30;98524.25;;;13.62;100.00
58239;BME280;44037;55.638;37.356;2023-07-22T01:18:57;98520.00;;;13.58;100.00
58239;BME280;44037;55.638;37.356;2023-07-22T01:21:25;98520.00;;;13.58;100.00
58239;BME280;44037;55.638;37.356;2023-07-22T01:23:53;98520.84;;;13.60;100.00
58239;BME280;44037;55.638;37.356;2023-07-22T01:26:22;98523.41;;;13.62;100.00
58239;BME280;44037;55.638;37.356;2023-07-22T01:28:50;98519.88;;;13.64;100.00
58239;BME280;44037;55.638;37.356;2023-07-22T01:31:17;98528.56;;;13.63;100.00
58239;BME280;44037;55.638;37.356;2023-07-22T01:33:44;98526.91;;;13.61;100.00
58239;BME280;44037;55.638;37.356;2023-07-22T01:36:11;98521.66;;;13.62;100.00
58239;BME280;44037;55.638;37.356;2023-07-22T01:38:38;98526.78;;;13.65;100.00
58239;BME280;44037;55.638;37.356;2023-07-22T01:41:06;98528.44;;;13.70;100.00
58239;BME280;44037;55.638;37.356;2023-07-22T01:43:33;98530.94;;;13.74;100.00
58239;BME280;44037;55.638;37.356;2023-07-22T01:46:00;98534.44;;;13.73;100.00
58239;BME280;44037;55.638;37.356;2023-07-22T01:48:28;98542.31;;;13.70;100.00
58239;BME280;44037;55.638;37.356;2023-07-22T01:50:55;98530.16;;;13.71;100.00
58239;BME280;44037;55.638;37.356;2023-07-22T01:53:23;98544.78;;;13.76;100.00
58239;BME280;44037;55.638;37.356;2023-07-22T01:55:50;98550.72;;;13.83;100.00
58239;BME280;44037;55.638;37.356;2023-07-22T01:58:18;98547.13;;;13.89;100.00
58239;BME280;44037;55.638;37.356;2023-07-22T02:00:49;98541.88;;;13.92;100.00
58239;BME280;44037;55.638;37.356;2023-07-22T02:03:17;98540.16;;;13.91;100.00
58239;BME280;44037;55.638;37.356;2023-07-22T02:05:44;98541.81;;;13.93;100.00
58239;BME280;44037;55.638;37.356;2023-07-22T02:08:11;98546.88;;;14.00;100.00
58239;BME280;44037;55.638;37.356;2023-07-22T02:10:38;98548.47;;;14.07;100.00
58239;BME280;44037;55.638;37.356;2023-07-22T02:13:05;98543.03;;;14.16;100.00
58239;BME280;44037;55.638;37.356;2023-07-22T02:15:35;98551.41;;;14.31;100.00
58239;BME280;44037;55.638;37.356;2023-07-22T02:18:02;98545.97;;;14.40;100.00
58239;BME280;44037;55.638;37.356;2023-07-22T02:20:30;98543.13;;;14.49;100.00
58239;BME280;44037;55.638;37.356;2023-07-22T02:22:57;98537.50;;;14.68;100.00
58239;BME280;44037;55.638;37.356;2023-07-22T02:25:24;98541.19;;;14.94;100.00
58239;BME280;44037;55.638;37.356;2023-07-22T02:27:52;98543.09;;;15.20;100.00
58239;BME280;44037;55.638;37.356;2023-07-22T02:30:19;98545.91;;;15.45;98.47
58239;BME280;44037;55.638;37.356;2023-07-22T02:32:48;98553.38;;;15.58;95.33
58239;BME280;44037;55.638;37.356;2023-07-22T02:35:15;98549.19;;;15.52;94.58
58239;BME280;44037;55.638;37.356;2023-07-22T02:37:42;98551.66;;;15.57;97.50
58239;BME280;44037;55.638;37.356;2023-07-22T02:40:10;98550.94;;;15.81;97.69
58239;BME280;44037;55.638;37.356;2023-07-22T02:42:38;98555.28;;;16.12;96.57
58239;BME280;44037;55.638;37.356;2023-07-22T02:45:06;98553.50;;;16.41;94.62
58239;BME280;44037;55.638;37.356;2023-07-22T02:47:34;98551.28;;;16.56;90.43
58239;BME280;44037;55.638;37.356;2023-07-22T02:50:03;98547.28;;;16.46;88.52
58239;BME280;44037;55.638;37.356;2023-07-22T02:52:32;98549.47;;;16.31;90.44
58239;BME280;44037;55.638;37.356;2023-07-22T02:55:09;98557.81;;;16.42;91.56
58239;BME280;44037;55.638;37.356;2023-07-22T02:57:38;98561.41;;;16.67;91.67
58239;BME280;44037;55.638;37.356;2023-07-22T03:00:06;98556.19;;;16.92;90.14
58239;BME280;44037;55.638;37.356;2023-07-22T03:02:34;98549.41;;;17.13;86.86
58239;BME280;44037;55.638;37.356;2023-07-22T03:05:04;98556.53;;;17.10;85.26
58239;BME280;44037;55.638;37.356;2023-07-22T03:07:33;98555.63;;;17.11;85.10
58239;BME280;44037;55.638;37.356;2023-07-22T03:10:00;98557.53;;;17.31;86.74
58239;BME280;44037;55.638;37.356;2023-07-22T03:12:30;98560.28;;;17.75;84.68
58239;BME280;44037;55.638;37.356;2023-07-22T03:14:57;98553.47;;;18.17;82.65
58239;BME280;44037;55.638;37.356;2023-07-22T03:17:24;98558.00;;;18.58;81.66
58239;BME280;44037;55.638;37.356;2023-07-22T03:19:51;98563.44;;;18.74;77.41
58239;BME280;44037;55.638;37.356;2023-07-22T03:22:20;98554.97;;;18.67;76.36
58239;BME280;44037;55.638;37.356;2023-07-22T03:24:47;98555.59;;;18.52;77.06
58239;BME280;44037;55.638;37.356;2023-07-22T03:27:14;98550.75;;;18.42;78.53
58239;BME280;44037;55.638;37.356;2023-07-22T03:29:43;98549.56;;;18.27;78.64
58239;BME280;44037;55.638;37.356;2023-07-22T03:32:10;98557.91;;;18.15;78.94
58239;BME280;44037;55.638;37.356;2023-07-22T03:34:37;98555.53;;;18.09;78.51
58239;BME280;44037;55.638;37.356;2023-07-22T03:37:04;98560.91;;;17.82;79.63
58239;BME280;44037;55.638;37.356;2023-07-22T03:39:33;98565.63;;;17.48;81.08
58239;BME280;44037;55.638;37.356;2023-07-22T03:42:00;98569.53;;;17.37;82.11
58239;BME280;44037;55.638;37.356;2023-07-22T03:44:29;98572.84;;;17.42;83.16
58239;BME280;44037;55.638;37.356;2023-07-22T03:46:56;98571.47;;;17.55;82.79
58239;BME280;44037;55.638;37.356;2023-07-22T03:49:24;98570.81;;;17.74;82.43
58239;BME280;44037;55.638;37.356;2023-07-22T03:51:51;98572.06;;;17.87;81.73
58239;BME280;44037;55.638;37.356;2023-07-22T03:54:18;98575.88;;;17.78;81.20
58239;BME280;44037;55.638;37.356;2023-07-22T03:56:46;98569.50;;;17.62;83.31
58239;BME280;44037;55.638;37.356;2023-07-22T03:59:13;98569.47;;;17.63;82.41
58239;BME280;44037;55.638;37.356;2023-07-22T04:01:40;98578.50;;;17.78;83.26
58239;BME280;44037;55.638;37.356;2023-07-22T04:04:08;98578.69;;;17.98;82.81
58239;BME280;44037;55.638;37.356;2023-07-22T04:06:35;98576.88;;;18.22;83.72
58239;BME280;44037;55.638;37.356;2023-07-22T04:09:02;98579.78;;;18.38;79.17
58239;BME280;44037;55.638;37.356;2023-07-22T04:11:29;98569.88;;;18.22;79.23
58239;BME280;44037;55.638;37.356;2023-07-22T04:13:58;98566.25;;;18.03;81.03
58239;BME280;44037;55.638;37.356;2023-07-22T04:16:25;98566.38;;;18.00;81.08
58239;BME280;44037;55.638;37.356;2023-07-22T04:18:52;98569.34;;;18.14;80.36
58239;BME280;44037;55.638;37.356;2023-07-22T04:21:20;98570.22;;;18.35;79.24
58239;BME280;44037;55.638;37.356;2023-07-22T04:23:47;98565.91;;;18.56;80.98
58239;BME280;44037;55.638;37.356;2023-07-22T04:26:14;98572.75;;;18.81;80.66
58239;BME280;44037;55.638;37.356;2023-07-22T04:28:42;98576.38;;;19.01;76.85
58239;BME280;44037;55.638;37.356;2023-07-22T04:31:12;98581.34;;;18.85;76.61
58239;BME280;44037;55.638;37.356;2023-07-22T04:33:39;98580.53;;;18.62;77.36
58239;BME280;44037;55.638;37.356;2023-07-22T04:36:07;98579.69;;;18.62;80.21
58239;BME280;44037;55.638;37.356;2023-07-22T04:38:34;98581.31;;;18.86;80.72
58239;BME280;44037;55.638;37.356;2023-07-22T04:41:03;98579.09;;;19.18;80.05
58239;BME280;44037;55.638;37.356;2023-07-22T04:43:31;98578.56;;;19.52;75.47
58239;BME280;44037;55.638;37.356;2023-07-22T04:45:58;98586.81;;;19.63;74.51
58239;BME280;44037;55.638;37.356;2023-07-22T04:48:27;98579.06;;;19.60;73.88
58239;BME280;44037;55.638;37.356;2023-07-22T04:50:54;98584.84;;;19.47;74.64
58239;BME280;44037;55.638;37.356;2023-07-22T04:53:21;98576.56;;;19.57;77.14
58239;BME280;44037;55.638;37.356;2023-07-22T04:55:49;98579.88;;;19.81;76.80
58239;BME280;44037;55.638;37.356;2023-07-22T04:58:16;98585.78;;;20.05;76.50
58239;BME280;44037;55.638;37.356;2023-07-22T05:00:43;98593.03;;;20.19;70.87
58239;BME280;44037;55.638;37.356;2023-07-22T05:03:10;98574.00;;;19.95;70.03
58239;BME280;44037;55.638;37.356;2023-07-22T05:05:39;98574.97;;;19.73;72.24
58239;BME280;44037;55.638;37.356;2023-07-22T05:08:05;98582.28;;;19.86;74.74
58239;BME280;44037;55.638;37.356;2023-07-22T05:10:33;98583.88;;;20.09;72.66
58239;BME280;44037;55.638;37.356;2023-07-22T05:13:00;98582.38;;;20.22;71.48
58239;BME280;44037;55.638;37.356;2023-07-22T05:15:28;98592.16;;;20.19;70.56
58239;BME280;44037;55.638;37.356;2023-07-22T05:17:55;98584.47;;;19.97;70.33
58239;BME280;44037;55.638;37.356;2023-07-22T05:20:22;98584.09;;;19.64;71.93
58239;BME280;44037;55.638;37.356;2023-07-22T05:22:50;98582.69;;;19.57;73.27
58239;BME280;44037;55.638;37.356;2023-07-22T05:25:18;98577.22;;;19.62;73.49
58239;BME280;44037;55.638;37.356;2023-07-22T05:27:45;98576.66;;;19.74;72.32
58239;BME280;44037;55.638;37.356;2023-07-22T05:30:13;98577.72;;;19.70;70.55
58239;BME280;44037;55.638;37.356;2023-07-22T05:32:40;98575.00;;;19.53;72.40
58239;BME280;44037;55.638;37.356;2023-07-22T05:35:07;98576.19;;;19.45;72.42
58239;BME280;44037;55.638;37.356;2023-07-22T05:37:35;98580.78;;;19.61;71.69
58239;BME280;44037;55.638;37.356;2023-07-22T05:40:04;98578.94;;;19.82;72.16
58239;BME280;44037;55.638;37.356;2023-07-22T05:42:33;98582.97;;;19.91;69.44
58239;BME280;44037;55.638;37.356;2023-07-22T05:45:00;98576.53;;;19.77;68.16
58239;BME280;44037;55.638;37.356;2023-07-22T05:47:32;98571.06;;;19.63;69.24
58239;BME280;44037;55.638;37.356;2023-07-22T05:49:59;98570.13;;;19.64;70.69
58239;BME280;44037;55.638;37.356;2023-07-22T05:52:26;98566.28;;;19.71;72.25
58239;BME280;44037;55.638;37.356;2023-07-22T05:54:53;98569.03;;;19.89;71.98
58239;BME280;44037;55.638;37.356;2023-07-22T05:57:22;98567.03;;;19.94;70.29
58239;BME280;44037;55.638;37.356;2023-07-22T05:59:49;98571.78;;;19.86;70.28
58239;BME280;44037;55.638;37.356;2023-07-22T06:02:17;98576.16;;;19.85;71.33
58239;BME280;44037;55.638;37.356;2023-07-22T06:04:44;98574.06;;;19.93;69.64
58239;BME280;44037;55.638;37.356;2023-07-22T06:07:11;98572.94;;;19.99;69.93
58239;BME280;44037;55.638;37.356;2023-07-22T06:09:38;98575.44;;;20.02;69.81
58239;BME280;44037;55.638;37.356;2023-07-22T06:12:06;98568.59;;;19.98;69.33
58239;BME280;44037;55.638;37.356;2023-07-22T06:14:35;98572.84;;;20.01;70.27
58239;BME280;44037;55.638;37.356;2023-07-22T06:17:03;98577.47;;;20.15;70.90
58239;BME280;44037;55.638;37.356;2023-07-22T06:19:30;98570.63;;;20.30;70.23
58239;BME280;44037;55.638;37.356;2023-07-22T06:21:57;98569.97;;;20.44;68.66
58239;BME280;44037;55.638;37.356;2023-07-22T06:24:24;98563.56;;;20.49;68.75
58239;BME280;44037;55.638;37.356;2023-07-22T06:26:51;98568.75;;;20.51;68.19
58239;BME280;44037;55.638;37.356;2023-07-22T06:29:19;98576.19;;;20.60;68.61
58239;BME280;44037;55.638;37.356;2023-07-22T06:31:47;98564.47;;;20.85;67.48
58239;BME280;44037;55.638;37.356;2023-07-22T06:34:14;98565.09;;;21.08;67.76
58239;BME280;44037;55.638;37.356;2023-07-22T06:36:41;98563.03;;;21.30;65.58
58239;BME280;44037;55.638;37.356;2023-07-22T06:39:09;98569.25;;;21.29;63.52
58239;BME280;44037;55.638;37.356;2023-07-22T06:41:36;98563.31;;;21.08;62.92
58239;BME280;44037;55.638;37.356;2023-07-22T06:44:03;98566.50;;;21.15;62.81
58239;BME280;44037;55.638;37.356;2023-07-22T06:46:30;98569.81;;;21.18;63.26
58239;BME280;44037;55.638;37.356;2023-07-22T06:48:59;98565.09;;;21.08;61.67
58239;BME280;44037;55.638;37.356;2023-07-22T06:51:26;98575.00;;;20.85;61.46
58239;BME280;44037;55.638;37.356;2023-07-22T06:53:53;98569.69;;;20.67;62.42
58239;BME280;44037;55.638;37.356;2023-07-22T06:56:20;98570.41;;;20.71;64.53
58239;BME280;44037;55.638;37.356;2023-07-22T06:58:48;98577.78;;;20.82;64.43
58239;BME280;44037;55.638;37.356;2023-07-22T07:01:16;98572.91;;;20.92;64.22
58239;BME280;44037;55.638;37.356;2023-07-22T07:03:43;98567.88;;;20.87;63.31
58239;BME280;44037;55.638;37.356;2023-07-22T07:06:12;98563.84;;;20.80;63.52
58239;BME280;44037;55.638;37.356;2023-07-22T07:08:39;98571.00;;;20.78;64.26
58239;BME280;44037;55.638;37.356;2023-07-22T07:11:06;98563.31;;;20.91;65.69
58239;BME280;44037;55.638;37.356;2023-07-22T07:13:33;98555.41;;;21.08;64.99
58239;BME280;44037;55.638;37.356;2023-07-22T07:16:21;98553.47;;;21.29;63.91
58239;BME280;44037;55.638;37.356;2023-07-22T07:18:49;98556.56;;;21.54;61.08
58239;BME280;44037;55.638;37.356;2023-07-22T07:21:18;98553.56;;;21.61;61.26
58239;BME280;44037;55.638;37.356;2023-07-22T07:23:45;98560.88;;;21.72;60.53
58239;BME280;44037;55.638;37.356;2023-07-22T07:26:12;98553.91;;;21.71;60.99
58239;BME280;44037;55.638;37.356;2023-07-22T07:28:39;98560.81;;;21.74;61.38
58239;BME280;44037;55.638;37.356;2023-07-22T07:31:06;98558.84;;;21.77;60.17
58239;BME280;44037;55.638;37.356;2023-07-22T07:33:34;98562.41;;;21.76;58.34
58239;BME280;44037;55.638;37.356;2023-07-22T07:36:01;98580.44;;;21.84;59.13
58239;BME280;44037;55.638;37.356;2023-07-22T07:38:30;98570.25;;;21.94;58.62
58239;BME280;44037;55.638;37.356;2023-07-22T07:40:58;98563.53;;;22.04;58.63
58239;BME280;44037;55.638;37.356;2023-07-22T07:43:26;98564.13;;;21.93;58.00
58239;BME280;44037;55.638;37.356;2023-07-22T07:46:15;98563.13;;;21.96;59.68
58239;BME280;44037;55.638;37.356;2023-07-22T07:48:43;98563.78;;;22.16;58.51
58239;BME280;44037;55.638;37.356;2023-07-22T07:51:12;98572.63;;;22.31;58.51
58239;BME280;44037;55.638;37.356;2023-07-22T07:53:41;98570.31;;;22.40;57.33
58239;BME280;44037;55.638;37.356;2023-07-22T07:56:10;98566.84;;;22.40;56.92
58239;BME280;44037;55.638;37.356;2023-07-22T07:58:37;98567.00;;;22.37;56.25
58239;BME280;44037;55.638;37.356;2023-07-22T08:01:04;98568.75;;;22.22;56.08
58239;BME280;44037;55.638;37.356;2023-07-22T08:03:32;98571.44;;;21.88;56.90
58239;BME280;44037;55.638;37.356;2023-07-22T08:06:00;98572.63;;;21.67;57.81
58239;BME280;44037;55.638;37.356;2023-07-22T08:08:28;98570.41;;;21.57;58.12
58239;BME280;44037;55.638;37.356;2023-07-22T08:11:00;98568.88;;;21.71;57.88
58239;BME280;44037;55.638;37.356;2023-07-22T08:13:27;98562.16;;;21.81;57.37
58239;BME280;44037;55.638;37.356;2023-07-22T08:15:58;98573.97;;;21.74;56.60
58239;BME280;44037;55.638;37.356;2023-07-22T08:18:25;98576.19;;;21.66;56.21
58239;BME280;44037;55.638;37.356;2023-07-22T08:20:53;98580.44;;;21.84;57.26
58239;BME280;44037;55.638;37.356;2023-07-22T08:23:20;98572.81;;;22.12;57.87
58239;BME280;44037;55.638;37.356;2023-07-22T08:25:47;98570.75;;;22.33;58.52
58239;BME280;44037;55.638;37.356;2023-07-22T08:28:16;98568.38;;;22.44;55.84
58239;BME280;44037;55.638;37.356;2023-07-22T08:30:44;98578.59;;;22.50;55.73
58239;BME280;44037;55.638;37.356;2023-07-22T08:33:11;98575.69;;;22.55;55.76
58239;BME280;44037;55.638;37.356;2023-07-22T08:35:39;98574.91;;;22.69;56.55
58239;BME280;44037;55.638;37.356;2023-07-22T08:38:06;98574.19;;;22.81;56.16
58239;BME280;44037;55.638;37.356;2023-07-22T08:40:34;98580.16;;;22.85;56.39
58239;BME280;44037;55.638;37.356;2023-07-22T08:43:02;98580.06;;;22.86;55.23
58239;BME280;44037;55.638;37.356;2023-07-22T08:45:33;98579.34;;;22.99;54.34
58239;BME280;44037;55.638;37.356;2023-07-22T08:48:03;98580.28;;;22.98;53.24
58239;BME280;44037;55.638;37.356;2023-07-22T08:50:36;98577.94;;;23.08;53.97
58239;BME280;44037;55.638;37.356;2023-07-22T08:53:06;98575.66;;;23.32;53.62
58239;BME280;44037;55.638;37.356;2023-07-22T08:55:34;98576.41;;;23.49;52.64
58239;BME280;44037;55.638;37.356;2023-07-22T08:58:02;98570.38;;;23.46;53.08
58239;BME280;44037;55.638;37.356;2023-07-22T09:00:30;98580.09;;;23.31;51.87
58239;BME280;44037;55.638;37.356;2023-07-22T09:02:58;98582.28;;;23.09;53.01
58239;BME280;44037;55.638;37.356;2023-07-22T09:05:26;98585.47;;;22.99;53.25
58239;BME280;44037;55.638;37.356;2023-07-22T09:07:54;98585.84;;;23.38;52.78
58239;BME280;44037;55.638;37.356;2023-07-22T09:10:22;98575.94;;;23.85;51.59
58239;BME280;44037;55.638;37.356;2023-07-22T09:12:51;98572.19;;;24.31;48.69
58239;BME280;44037;55.638;37.356;2023-07-22T09:15:18;98573.53;;;24.24;47.87
58239;BME280;44037;55.638;37.356;2023-07-22T09:17:48;98578.13;;;23.93;48.10
58239;BME280;44037;55.638;37.356;2023-07-22T09:20:16;98565.84;;;23.77;49.83
58239;BME280;44037;55.638;37.356;2023-07-22T09:22:44;98576.88;;;23.84;49.19
58239;BME280;44037;55.638;37.356;2023-07-22T09:25:13;98570.56;;;23.87;50.34
58239;BME280;44037;55.638;37.356;2023-07-22T09:27:41;98570.91;;;23.95;49.61
58239;BME280;44037;55.638;37.356;2023-07-22T09:30:21;98570.56;;;23.87;48.16
58239;BME280;44037;55.638;37.356;2023-07-22T09:32:50;98572.84;;;23.50;48.72
58239;BME280;44037;55.638;37.356;2023-07-22T09:35:18;98574.19;;;23.12;48.05
58239;BME280;44037;55.638;37.356;2023-07-22T09:37:45;98585.72;;;22.95;48.86
58239;BME280;44037;55.638;37.356;2023-07-22T09:40:19;98585.16;;;22.90;49.16
58239;BME280;44037;55.638;37.356;2023-07-22T09:42:48;98592.28;;;22.73;50.57
58239;BME280;44037;55.638;37.356;2023-07-22T09:45:15;98587.34;;;22.67;51.30
58239;BME280;44037;55.638;37.356;2023-07-22T09:47:45;98587.59;;;22.62;50.21
58239;BME280;44037;55.638;37.356;2023-07-22T09:50:16;98592.13;;;22.60;50.13
58239;BME280;44037;55.638;37.356;2023-07-22T09:52:47;98581.66;;;22.59;50.45
58239;BME280;44037;55.638;37.356;2023-07-22T09:55:16;98592.22;;;22.59;50.39
58239;BME280;44037;55.638;37.356;2023-07-22T09:57:46;98581.66;;;22.59;50.77
58239;BME280;44037;55.638;37.356;2023-07-22T10:00:16;98587.16;;;22.70;50.45
58239;BME280;44037;55.638;37.356;2023-07-22T10:02:46;98601.00;;;22.90;50.96
58239;BME280;44037;55.638;37.356;2023-07-22T10:05:18;98598.19;;;22.93;50.63
58239;BME280;44037;55.638;37.356;2023-07-22T10:07:46;98595.13;;;22.84;49.61
58239;BME280;44037;55.638;37.356;2023-07-22T10:10:16;98598.88;;;22.96;49.88
58239;BME280;44037;55.638;37.356;2023-07-22T10:12:44;98597.50;;;22.89;49.82
58239;BME280;44037;55.638;37.356;2023-07-22T10:15:13;98588.75;;;22.89;49.87
58239;BME280;44037;55.638;37.356;2023-07-22T10:17:42;98591.78;;;23.27;49.68
58239;BME280;44037;55.638;37.356;2023-07-22T10:20:11;98594.16;;;23.46;48.75
58239;BME280;44037;55.638;37.356;2023-07-22T10:22:43;98597.69;;;23.16;47.67
58239;BME280;44037;55.638;37.356;2023-07-22T10:25:12;98587.03;;;23.18;47.72
58239;BME280;44037;55.638;37.356;2023-07-22T10:27:40;98589.53;;;23.36;48.43
58239;BME280;44037;55.638;37.356;2023-07-22T10:30:08;98592.19;;;23.65;46.62
58239;BME280;44037;55.638;37.356;2023-07-22T10:32:37;98590.41;;;23.80;46.29
58239;BME280;44037;55.638;37.356;2023-07-22T10:35:08;98593.13;;;23.78;45.48
58239;BME280;44037;55.638;37.356;2023-07-22T10:37:36;98591.63;;;23.45;46.15
58239;BME280;44037;55.638;37.356;2023-07-22T10:40:19;98595.75;;;23.20;46.75
58239;BME280;44037;55.638;37.356;2023-07-22T10:42:54;98596.66;;;23.19;46.33
58239;BME280;44037;55.638;37.356;2023-07-22T10:45:25;98591.97;;;23.24;45.56
58239;BME280;44037;55.638;37.356;2023-07-22T10:48:03;98600.00;;;23.37;46.31
58239;BME280;44037;55.638;37.356;2023-07-22T10:50:43;98593.59;;;23.41;44.79
58239;BME280;44037;55.638;37.356;2023-07-22T10:53:14;98598.97;;;23.40;45.25
58239;BME280;44037;55.638;37.356;2023-07-22T10:56:07;98588.22;;;23.86;44.99
58239;BME280;44037;55.638;37.356;2023-07-22T10:59:00;98586.56;;;24.27;43.21
58239;BME280;44037;55.638;37.356;2023-07-22T11:01:36;98586.22;;;24.46;43.22
58239;BME280;44037;55.638;37.356;2023-07-22T11:04:23;98588.22;;;24.43;42.06
58239;BME280;44037;55.638;37.356;2023-07-22T11:07:04;98592.66;;;24.42;42.07
58239;BME280;44037;55.638;37.356;2023-07-22T11:09:39;98601.41;;;24.57;43.37
58239;BME280;44037;55.638;37.356;2023-07-22T11:12:12;98597.72;;;24.87;42.23
58239;BME280;44037;55.638;37.356;2023-07-22T11:14:45;98584.22;;;25.30;42.33
58239;BME280;44037;55.638;37.356;2023-07-22T11:17:13;98582.97;;;25.49;39.86
58239;BME280;44037;55.638;37.356;2023-07-22T11:19:40;98588.78;;;25.41;40.48
58239;BME280;44037;55.638;37.356;2023-07-22T11:22:08;98603.53;;;25.45;39.29
58239;BME280;44037;55.638;37.356;2023-07-22T11:24:36;98608.41;;;25.65;39.55
58239;BME280;44037;55.638;37.356;2023-07-22T11:27:05;98608.81;;;25.84;38.78
58239;BME280;44037;55.638;37.356;2023-07-22T11:29:34;98592.25;;;25.94;36.76
58239;BME280;44037;55.638;37.356;2023-07-22T11:32:02;98597.94;;;25.63;36.97
58239;BME280;44037;55.638;37.356;2023-07-22T11:34:29;98617.94;;;25.28;38.96
58239;BME280;44037;55.638;37.356;2023-07-22T11:36:57;98610.69;;;25.05;40.75
58239;BME280;44037;55.638;37.356;2023-07-22T11:39:26;98606.41;;;24.89;40.49
58239;BME280;44037;55.638;37.356;2023-07-22T11:41:59;98612.38;;;25.06;40.73
58239;BME280;44037;55.638;37.356;2023-07-22T11:44:28;98616.53;;;25.23;39.68
58239;BME280;44037;55.638;37.356;2023-07-22T11:46:58;98612.31;;;25.20;38.76
58239;BME280;44037;55.638;37.356;2023-07-22T11:49:28;98601.72;;;25.20;40.00
58239;BME280;44037;55.638;37.356;2023-07-22T11:51:57;98592.16;;;25.30;38.32
58239;BME280;44037;55.638;37.356;2023-07-22T11:54:25;98593.78;;;25.46;39.18
58239;BME280;44037;55.638;37.356;2023-07-22T11:56:52;98587.00;;;25.55;38.10
58239;BME280;44037;55.638;37.356;2023-07-22T11:59:33;98595.06;;;25.53;38.09
58239;BME280;44037;55.638;37.356;2023-07-22T12:02:02;98582.19;;;25.34;37.72
58239;BME280;44037;55.638;37.356;2023-07-22T12:04:32;98577.53;;;25.38;37.86
58239;BME280;44037;55.638;37.356;2023-07-22T12:06:59;98585.81;;;25.46;37.73
58239;BME280;44037;55.638;37.356;2023-07-22T12:09:26;98577.88;;;25.59;37.45
58239;BME280;44037;55.638;37.356;2023-07-22T12:11:57;98583.19;;;25.59;37.16
58239;BME280;44037;55.638;37.356;2023-07-22T12:14:32;98584.00;;;25.59;37.25
58239;BME280;44037;55.638;37.356;2023-07-22T12:17:02;98584.34;;;25.55;38.08
58239;BME280;44037;55.638;37.356;2023-07-22T12:19:29;98583.28;;;25.32;37.60
58239;BME280;44037;55.638;37.356;2023-07-22T12:21:56;98592.03;;;24.93;38.43
58239;BME280;44037;55.638;37.356;2023-07-22T12:24:23;98586.28;;;24.87;38.56
58239;BME280;44037;55.638;37.356;2023-07-22T12:26:51;98583.72;;;24.85;38.56
58239;BME280;44037;55.638;37.356;2023-07-22T12:29:18;98587.56;;;24.66;39.82
58239;BME280;44037;55.638;37.356;2023-07-22T12:31:45;98592.22;;;24.35;40.48
58239;BME280;44037;55.638;37.356;2023-07-22T12:34:13;98587.34;;;23.86;41.64
58239;BME280;44037;55.638;37.356;2023-07-22T12:36:41;98594.09;;;23.48;42.21
58239;BME280;44037;55.638;37.356;2023-07-22T12:39:08;98588.31;;;23.27;43.06
58239;BME280;44037;55.638;37.356;2023-07-22T12:41:35;98594.09;;;23.17;43.27
58239;BME280;44037;55.638;37.356;2023-07-22T12:44:02;98596.56;;;23.21;43.80
58239;BME280;44037;55.638;37.356;2023-07-22T12:46:29;98592.22;;;23.20;43.80
58239;BME280;44037;55.638;37.356;2023-07-22T12:48:56;98588.31;;;23.27;43.96
58239;BME280;44037;55.638;37.356;2023-07-22T12:51:25;98578.78;;;23.53;44.32
58239;BME280;44037;55.638;37.356;2023-07-22T12:53:52;98576.41;;;23.77;43.38
58239;BME280;44037;55.638;37.356;2023-07-22T12:56:20;98585.75;;;24.12;42.48